sensor_id;sensor_type;location;lat;lon;timestamp;temperature;humidity
44982;DHT22;30716;41.740;-70.400;2022-07-24T00:00:03;23.30;50.40
44982;DHT22;30716;41.740;-70.400;2022-07-24T00:02:29;23.30;50.40
44982;DHT22;30716;41.740;-70.400;2022-07-24T00:04:55;23.30;50.40
44982;DHT22;30716;41.740;-70.400;2022-07-24T00:07:22;23.30;50.40
44982;DHT22;30716;41.740;-70.400;2022-07-24T00:09:49;23.30;50.50
44982;DHT22;30716;41.740;-70.400;2022-07-24T00:12:15;23.30;50.40
44982;DHT22;30716;41.740;-70.400;2022-07-24T00:14:41;23.30;49.80
44982;DHT22;30716;41.740;-70.400;2022-07-24T00:17:07;23.20;50.30
44982;DHT22;30716;41.740;-70.400;2022-07-24T00:19:34;23.30;50.20
44982;DHT22;30716;41.740;-70.400;2022-07-24T00:22:00;23.30;50.40
44982;DHT22;30716;41.740;-70.400;2022-07-24T00:24:29;23.30;50.30
44982;DHT22;30716;41.740;-70.400;2022-07-24T00:26:55;23.30;50.30
44982;DHT22;30716;41.740;-70.400;2022-07-24T00:29:22;23.20;50.20
44982;DHT22;30716;41.740;-70.400;2022-07-24T00:31:48;23.20;49.90
44982;DHT22;30716;41.740;-70.400;2022-07-24T00:34:14;23.20;49.60
44982;DHT22;30716;41.740;-70.400;2022-07-24T00:36:41;23.20;50.00
44982;DHT22;30716;41.740;-70.400;2022-07-24T00:39:09;23.20;50.00
44982;DHT22;30716;41.740;-70.400;2022-07-24T00:41:36;23.20;50.00
44982;DHT22;30716;41.740;-70.400;2022-07-24T00:44:14;23.20;50.00
44982;DHT22;30716;41.740;-70.400;2022-07-24T00:46:42;23.20;50.20
44982;DHT22;30716;41.740;-70.400;2022-07-24T00:49:12;23.20;50.20
44982;DHT22;30716;41.740;-70.400;2022-07-24T00:51:40;23.20;50.20
44982;DHT22;30716;41.740;-70.400;2022-07-24T00:54:09;23.20;50.20
44982;DHT22;30716;41.740;-70.400;2022-07-24T00:56:36;23.20;50.20
44982;DHT22;30716;41.740;-70.400;2022-07-24T00:59:03;23.20;50.20
44982;DHT22;30716;41.740;-70.400;2022-07-24T01:01:30;23.20;49.80
44982;DHT22;30716;41.740;-70.400;2022-07-24T01:03:57;23.20;49.50
44982;DHT22;30716;41.740;-70.400;2022-07-24T01:06:24;23.10;49.50
44982;DHT22;30716;41.740;-70.400;2022-07-24T01:08:51;23.10;49.80
44982;DHT22;30716;41.740;-70.400;2022-07-24T01:11:19;23.10;49.90
44982;DHT22;30716;41.740;-70.400;2022-07-24T01:13:47;23.10;49.80
44982;DHT22;30716;41.740;-70.400;2022-07-24T01:16:14;23.10;50.00
44982;DHT22;30716;41.740;-70.400;2022-07-24T01:18:41;23.20;50.10
44982;DHT22;30716;41.740;-70.400;2022-07-24T01:21:07;23.20;50.00
44982;DHT22;30716;41.740;-70.400;2022-07-24T01:23:34;23.20;50.00
44982;DHT22;30716;41.740;-70.400;2022-07-24T01:26:01;23.20;50.20
44982;DHT22;30716;41.740;-70.400;2022-07-24T01:28:27;23.20;50.10
44982;DHT22;30716;41.740;-70.400;2022-07-24T01:30:54;23.30;50.10
44982;DHT22;30716;41.740;-70.400;2022-07-24T01:33:20;23.30;50.10
44982;DHT22;30716;41.740;-70.400;2022-07-24T01:35:46;23.30;50.10
44982;DHT22;30716;41.740;-70.400;2022-07-24T01:38:13;23.30;50.10
44982;DHT22;30716;41.740;-70.400;2022-07-24T01:40:39;23.30;50.00
44982;DHT22;30716;41.740;-70.400;2022-07-24T01:43:06;23.30;49.90
44982;DHT22;30716;41.740;-70.400;2022-07-24T01:45:33;23.30;49.90
44982;DHT22;30716;41.740;-70.400;2022-07-24T01:47:59;23.20;49.70
44982;DHT22;30716;41.740;-70.400;2022-07-24T01:50:25;23.30;49.80
44982;DHT22;30716;41.740;-70.400;2022-07-24T01:52:51;23.30;50.00
44982;DHT22;30716;41.740;-70.400;2022-07-24T01:55:20;23.30;50.00
44982;DHT22;30716;41.740;-70.400;2022-07-24T01:57:47;23.30;50.00
44982;DHT22;30716;41.740;-70.400;2022-07-24T02:00:13;23.30;49.90
44982;DHT22;30716;41.740;-70.400;2022-07-24T02:02:42;23.30;49.90
44982;DHT22;30716;41.740;-70.400;2022-07-24T02:05:08;23.40;50.00
44982;DHT22;30716;41.740;-70.400;2022-07-24T02:07:35;23.30;49.90
44982;DHT22;30716;41.740;-70.400;2022-07-24T02:10:02;23.40;50.10
44982;DHT22;30716;41.740;-70.400;2022-07-24T02:12:28;23.40;50.00
44982;DHT22;30716;41.740;-70.400;2022-07-24T02:14:54;23.40;50.00
44982;DHT22;30716;41.740;-70.400;2022-07-24T02:17:20;23.40;50.10
44982;DHT22;30716;41.740;-70.400;2022-07-24T02:19:47;23.40;50.00
44982;DHT22;30716;41.740;-70.400;2022-07-24T02:22:13;23.40;49.80
44982;DHT22;30716;41.740;-70.400;2022-07-24T02:24:39;23.40;49.80
44982;DHT22;30716;41.740;-70.400;2022-07-24T02:27:05;23.30;49.70
44982;DHT22;30716;41.740;-70.400;2022-07-24T02:29:32;23.30;49.90
44982;DHT22;30716;41.740;-70.400;2022-07-24T02:31:58;23.30;50.00
44982;DHT22;30716;41.740;-70.400;2022-07-24T02:34:25;23.30;50.10
44982;DHT22;30716;41.740;-70.400;2022-07-24T02:36:51;23.30;50.00
44982;DHT22;30716;41.740;-70.400;2022-07-24T02:39:17;23.30;50.00
44982;DHT22;30716;41.740;-70.400;2022-07-24T02:41:43;23.30;50.10
44982;DHT22;30716;41.740;-70.400;2022-07-24T02:44:10;23.40;50.10
44982;DHT22;30716;41.740;-70.400;2022-07-24T02:46:36;23.30;50.10
44982;DHT22;30716;41.740;-70.400;2022-07-24T02:49:02;23.40;50.00
44982;DHT22;30716;41.740;-70.400;2022-07-24T02:51:28;23.40;50.10
44982;DHT22;30716;41.740;-70.400;2022-07-24T02:53:55;23.40;50.10
44982;DHT22;30716;41.740;-70.400;2022-07-24T02:56:21;23.40;50.20
44982;DHT22;30716;41.740;-70.400;2022-07-24T02:58:47;23.40;50.10
44982;DHT22;30716;41.740;-70.400;2022-07-24T03:01:13;23.30;50.00
44982;DHT22;30716;41.740;-70.400;2022-07-24T03:03:39;23.30;49.80
44982;DHT22;30716;41.740;-70.400;2022-07-24T03:06:06;23.30;49.80
44982;DHT22;30716;41.740;-70.400;2022-07-24T03:08:32;23.30;49.80
44982;DHT22;30716;41.740;-70.400;2022-07-24T03:10:58;23.30;49.80
44982;DHT22;30716;41.740;-70.400;2022-07-24T03:13:25;23.30;49.90
44982;DHT22;30716;41.740;-70.400;2022-07-24T03:15:52;23.30;49.90
44982;DHT22;30716;41.740;-70.400;2022-07-24T03:18:19;23.30;50.00
44982;DHT22;30716;41.740;-70.400;2022-07-24T03:20:45;23.30;49.90
44982;DHT22;30716;41.740;-70.400;2022-07-24T03:23:11;23.30;50.00
44982;DHT22;30716;41.740;-70.400;2022-07-24T03:25:37;23.30;50.00
44982;DHT22;30716;41.740;-70.400;2022-07-24T03:28:05;23.30;49.90
44982;DHT22;30716;41.740;-70.400;2022-07-24T03:30:31;23.30;50.00
44982;DHT22;30716;41.740;-70.400;2022-07-24T03:32:57;23.30;50.00
44982;DHT22;30716;41.740;-70.400;2022-07-24T03:35:23;23.30;50.00
44982;DHT22;30716;41.740;-70.400;2022-07-24T03:37:49;23.30;50.00
44982;DHT22;30716;41.740;-70.400;2022-07-24T03:40:16;23.40;50.00
44982;DHT22;30716;41.740;-70.400;2022-07-24T03:42:42;23.40;50.00
44982;DHT22;30716;41.740;-70.400;2022-07-24T03:45:08;23.40;50.20
44982;DHT22;30716;41.740;-70.400;2022-07-24T03:47:35;23.30;50.90
44982;DHT22;30716;41.740;-70.400;2022-07-24T03:50:01;23.30;50.00
44982;DHT22;30716;41.740;-70.400;2022-07-24T03:52:28;23.30;49.90
44982;DHT22;30716;41.740;-70.400;2022-07-24T03:54:54;23.30;50.00
44982;DHT22;30716;41.740;-70.400;2022-07-24T03:57:21;23.30;50.40
44982;DHT22;30716;41.740;-70.400;2022-07-24T03:59:47;23.30;50.00
44982;DHT22;30716;41.740;-70.400;2022-07-24T04:02:13;23.30;50.00
44982;DHT22;30716;41.740;-70.400;2022-07-24T04:04:39;23.30;50.20
44982;DHT22;30716;41.740;-70.400;2022-07-24T04:07:06;23.30;50.10
44982;DHT22;30716;41.740;-70.400;2022-07-24T04:09:32;23.30;50.10
44982;DHT22;30716;41.740;-70.400;2022-07-24T04:11:59;23.30;50.00
44982;DHT22;30716;41.740;-70.400;2022-07-24T04:14:25;23.40;50.60
44982;DHT22;30716;41.740;-70.400;2022-07-24T04:16:52;23.40;50.00
44982;DHT22;30716;41.740;-70.400;2022-07-24T04:19:20;23.40;50.00
44982;DHT22;30716;41.740;-70.400;2022-07-24T04:21:46;23.40;50.10
44982;DHT22;30716;41.740;-70.400;2022-07-24T04:24:12;23.50;50.20
44982;DHT22;30716;41.740;-70.400;2022-07-24T04:26:38;23.50;50.30
44982;DHT22;30716;41.740;-70.400;2022-07-24T04:29:04;23.50;50.20
44982;DHT22;30716;41.740;-70.400;2022-07-24T04:31:31;23.50;50.20
44982;DHT22;30716;41.740;-70.400;2022-07-24T04:33:57;23.50;50.40
44982;DHT22;30716;41.740;-70.400;2022-07-24T04:36:23;23.50;50.20
44982;DHT22;30716;41.740;-70.400;2022-07-24T04:38:49;23.50;50.20
44982;DHT22;30716;41.740;-70.400;2022-07-24T04:41:15;23.40;50.00
44982;DHT22;30716;41.740;-70.400;2022-07-24T04:43:43;23.40;50.00
44982;DHT22;30716;41.740;-70.400;2022-07-24T04:46:10;23.40;50.00
44982;DHT22;30716;41.740;-70.400;2022-07-24T04:48:36;23.40;49.90
44982;DHT22;30716;41.740;-70.400;2022-07-24T04:51:02;23.40;49.90
44982;DHT22;30716;41.740;-70.400;2022-07-24T04:53:28;23.40;49.90
44982;DHT22;30716;41.740;-70.400;2022-07-24T04:55:57;23.40;50.00
44982;DHT22;30716;41.740;-70.400;2022-07-24T04:58:23;23.50;50.00
44982;DHT22;30716;41.740;-70.400;2022-07-24T05:00:51;23.50;50.10
44982;DHT22;30716;41.740;-70.400;2022-07-24T05:03:17;23.50;50.10
44982;DHT22;30716;41.740;-70.400;2022-07-24T05:05:43;23.50;50.00
44982;DHT22;30716;41.740;-70.400;2022-07-24T05:08:10;23.50;50.10
44982;DHT22;30716;41.740;-70.400;2022-07-24T05:10:37;23.50;50.10
44982;DHT22;30716;41.740;-70.400;2022-07-24T05:13:03;23.50;50.50
44982;DHT22;30716;41.740;-70.400;2022-07-24T05:15:30;23.40;50.00
44982;DHT22;30716;41.740;-70.400;2022-07-24T05:17:56;23.40;49.90
44982;DHT22;30716;41.740;-70.400;2022-07-24T05:20:22;23.40;49.80
44982;DHT22;30716;41.740;-70.400;2022-07-24T05:22:48;23.40;49.80
44982;DHT22;30716;41.740;-70.400;2022-07-24T05:25:15;23.40;49.90
44982;DHT22;30716;41.740;-70.400;2022-07-24T05:27:41;23.40;50.00
44982;DHT22;30716;41.740;-70.400;2022-07-24T05:30:07;23.40;50.90
44982;DHT22;30716;41.740;-70.400;2022-07-24T05:32:34;23.40;50.00
44982;DHT22;30716;41.740;-70.400;2022-07-24T05:35:00;23.40;50.10
44982;DHT22;30716;41.740;-70.400;2022-07-24T05:37:26;23.40;50.00
44982;DHT22;30716;41.740;-70.400;2022-07-24T05:39:52;23.40;50.00
44982;DHT22;30716;41.740;-70.400;2022-07-24T05:42:18;23.50;50.10
44982;DHT22;30716;41.740;-70.400;2022-07-24T05:44:44;23.50;50.10
44982;DHT22;30716;41.740;-70.400;2022-07-24T05:47:11;23.50;50.10
44982;DHT22;30716;41.740;-70.400;2022-07-24T05:49:37;23.50;50.10
44982;DHT22;30716;41.740;-70.400;2022-07-24T05:52:03;23.50;50.10
44982;DHT22;30716;41.740;-70.400;2022-07-24T05:54:30;23.50;50.20
44982;DHT22;30716;41.740;-70.400;2022-07-24T05:56:56;23.50;50.10
44982;DHT22;30716;41.740;-70.400;2022-07-24T05:59:22;23.50;50.10
44982;DHT22;30716;41.740;-70.400;2022-07-24T06:01:48;23.50;50.20
44982;DHT22;30716;41.740;-70.400;2022-07-24T06:04:14;23.50;50.20
44982;DHT22;30716;41.740;-70.400;2022-07-24T06:06:40;23.50;50.20
44982;DHT22;30716;41.740;-70.400;2022-07-24T06:09:06;23.60;50.30
44982;DHT22;30716;41.740;-70.400;2022-07-24T06:11:33;23.60;50.30
44982;DHT22;30716;41.740;-70.400;2022-07-24T06:13:59;23.60;50.30
44982;DHT22;30716;41.740;-70.400;2022-07-24T06:16:25;23.60;50.30
44982;DHT22;30716;41.740;-70.400;2022-07-24T06:18:51;23.50;50.10
44982;DHT22;30716;41.740;-70.400;2022-07-24T06:21:17;23.50;50.10
44982;DHT22;30716;41.740;-70.400;2022-07-24T06:23:43;23.50;50.20
44982;DHT22;30716;41.740;-70.400;2022-07-24T06:26:10;23.60;50.50
44982;DHT22;30716;41.740;-70.400;2022-07-24T06:28:36;23.50;50.40
44982;DHT22;30716;41.740;-70.400;2022-07-24T06:31:02;23.50;50.50
44982;DHT22;30716;41.740;-70.400;2022-07-24T06:33:28;23.50;50.40
44982;DHT22;30716;41.740;-70.400;2022-07-24T06:35:54;23.60;50.60
44982;DHT22;30716;41.740;-70.400;2022-07-24T06:38:20;23.50;50.40
44982;DHT22;30716;41.740;-70.400;2022-07-24T06:40:47;23.50;50.50
44982;DHT22;30716;41.740;-70.400;2022-07-24T06:43:13;23.60;50.50
44982;DHT22;30716;41.740;-70.400;2022-07-24T06:45:40;23.60;50.50
44982;DHT22;30716;41.740;-70.400;2022-07-24T06:48:09;23.60;50.50
44982;DHT22;30716;41.740;-70.400;2022-07-24T06:50:37;23.60;50.50
44982;DHT22;30716;41.740;-70.400;2022-07-24T06:53:03;23.60;50.50
44982;DHT22;30716;41.740;-70.400;2022-07-24T06:55:29;23.60;50.90
44982;DHT22;30716;41.740;-70.400;2022-07-24T06:57:55;23.60;50.50
44982;DHT22;30716;41.740;-70.400;2022-07-24T07:00:21;23.70;50.60
44982;DHT22;30716;41.740;-70.400;2022-07-24T07:02:48;23.70;50.50
44982;DHT22;30716;41.740;-70.400;2022-07-24T07:05:15;23.60;50.40
44982;DHT22;30716;41.740;-70.400;2022-07-24T07:07:42;23.60;50.30
44982;DHT22;30716;41.740;-70.400;2022-07-24T07:10:09;23.60;50.30
44982;DHT22;30716;41.740;-70.400;2022-07-24T07:12:36;23.60;50.20
44982;DHT22;30716;41.740;-70.400;2022-07-24T07:15:04;23.60;50.30
44982;DHT22;30716;41.740;-70.400;2022-07-24T07:17:30;23.50;50.10
44982;DHT22;30716;41.740;-70.400;2022-07-24T07:19:56;23.60;50.30
44982;DHT22;30716;41.740;-70.400;2022-07-24T07:22:22;23.50;50.50
44982;DHT22;30716;41.740;-70.400;2022-07-24T07:24:49;23.50;50.40
44982;DHT22;30716;41.740;-70.400;2022-07-24T07:27:15;23.50;50.40
44982;DHT22;30716;41.740;-70.400;2022-07-24T07:29:41;23.60;50.50
44982;DHT22;30716;41.740;-70.400;2022-07-24T07:32:07;23.60;50.50
44982;DHT22;30716;41.740;-70.400;2022-07-24T07:34:33;23.60;50.50
44982;DHT22;30716;41.740;-70.400;2022-07-24T07:36:59;23.60;50.60
44982;DHT22;30716;41.740;-70.400;2022-07-24T07:39:26;23.60;50.60
44982;DHT22;30716;41.740;-70.400;2022-07-24T07:41:52;23.60;50.50
44982;DHT22;30716;41.740;-70.400;2022-07-24T07:44:18;23.60;50.50
44982;DHT22;30716;41.740;-70.400;2022-07-24T07:46:44;23.70;50.50
44982;DHT22;30716;41.740;-70.400;2022-07-24T07:49:10;23.70;50.60
44982;DHT22;30716;41.740;-70.400;2022-07-24T07:51:36;23.70;50.60
44982;DHT22;30716;41.740;-70.400;2022-07-24T07:54:03;23.70;51.20
44982;DHT22;30716;41.740;-70.400;2022-07-24T07:56:29;23.70;50.40
44982;DHT22;30716;41.740;-70.400;2022-07-24T07:58:57;23.60;50.40
44982;DHT22;30716;41.740;-70.400;2022-07-24T08:01:23;23.60;50.50
44982;DHT22;30716;41.740;-70.400;2022-07-24T08:03:50;23.70;50.50
44982;DHT22;30716;41.740;-70.400;2022-07-24T08:06:16;23.70;51.20
44982;DHT22;30716;41.740;-70.400;2022-07-24T08:08:42;23.70;50.50
44982;DHT22;30716;41.740;-70.400;2022-07-24T08:11:08;23.70;50.50
44982;DHT22;30716;41.740;-70.400;2022-07-24T08:13:34;23.70;50.50
44982;DHT22;30716;41.740;-70.400;2022-07-24T08:16:00;23.70;50.50
44982;DHT22;30716;41.740;-70.400;2022-07-24T08:18:27;23.70;50.50
44982;DHT22;30716;41.740;-70.400;2022-07-24T08:20:53;23.70;50.60
44982;DHT22;30716;41.740;-70.400;2022-07-24T08:23:19;23.70;50.60
44982;DHT22;30716;41.740;-70.400;2022-07-24T08:25:45;23.70;50.60
44982;DHT22;30716;41.740;-70.400;2022-07-24T08:28:11;23.70;50.70
44982;DHT22;30716;41.740;-70.400;2022-07-24T08:30:37;23.70;50.60
44982;DHT22;30716;41.740;-70.400;2022-07-24T08:33:04;23.70;50.70
44982;DHT22;30716;41.740;-70.400;2022-07-24T08:35:30;23.70;50.70
44982;DHT22;30716;41.740;-70.400;2022-07-24T08:37:56;23.70;50.70
44982;DHT22;30716;41.740;-70.400;2022-07-24T08:40:23;23.70;50.80
44982;DHT22;30716;41.740;-70.400;2022-07-24T08:42:50;23.70;50.70
44982;DHT22;30716;41.740;-70.400;2022-07-24T08:45:16;23.70;51.20
44982;DHT22;30716;41.740;-70.400;2022-07-24T08:47:42;23.70;50.80
44982;DHT22;30716;41.740;-70.400;2022-07-24T08:50:09;23.70;50.80
44982;DHT22;30716;41.740;-70.400;2022-07-24T08:52:37;23.70;50.70
44982;DHT22;30716;41.740;-70.400;2022-07-24T08:55:05;23.70;50.80
44982;DHT22;30716;41.740;-70.400;2022-07-24T08:57:31;23.80;50.80
44982;DHT22;30716;41.740;-70.400;2022-07-24T08:59:57;23.80;50.90
44982;DHT22;30716;41.740;-70.400;2022-07-24T09:02:23;23.80;50.90
44982;DHT22;30716;41.740;-70.400;2022-07-24T09:04:50;23.80;50.90
44982;DHT22;30716;41.740;-70.400;2022-07-24T09:07:23;23.70;50.80
44982;DHT22;30716;41.740;-70.400;2022-07-24T09:10:10;23.80;50.90
44982;DHT22;30716;41.740;-70.400;2022-07-24T09:12:39;23.80;50.90
44982;DHT22;30716;41.740;-70.400;2022-07-24T09:15:12;23.80;50.90
44982;DHT22;30716;41.740;-70.400;2022-07-24T09:17:54;23.80;50.60
44982;DHT22;30716;41.740;-70.400;2022-07-24T09:20:30;23.70;50.60
44982;DHT22;30716;41.740;-70.400;2022-07-24T09:22:57;23.70;50.60
44982;DHT22;30716;41.740;-70.400;2022-07-24T09:25:26;23.70;51.00
44982;DHT22;30716;41.740;-70.400;2022-07-24T09:33:05;23.70;50.70
44982;DHT22;30716;41.740;-70.400;2022-07-24T09:35:33;23.70;50.80
44982;DHT22;30716;41.740;-70.400;2022-07-24T09:38:01;23.70;50.70
44982;DHT22;30716;41.740;-70.400;2022-07-24T09:40:37;23.70;50.70
44982;DHT22;30716;41.740;-70.400;2022-07-24T09:43:23;23.70;50.70
44982;DHT22;30716;41.740;-70.400;2022-07-24T09:46:07;23.80;50.90
44982;DHT22;30716;41.740;-70.400;2022-07-24T09:48:57;23.70;50.80
44982;DHT22;30716;41.740;-70.400;2022-07-24T09:51:27;23.70;50.80
44982;DHT22;30716;41.740;-70.400;2022-07-24T09:53:59;23.80;50.80
44982;DHT22;30716;41.740;-70.400;2022-07-24T09:56:27;23.70;50.70
44982;DHT22;30716;41.740;-70.400;2022-07-24T09:58:55;23.70;50.60
44982;DHT22;30716;41.740;-70.400;2022-07-24T10:01:24;23.70;50.50
44982;DHT22;30716;41.740;-70.400;2022-07-24T10:03:52;23.70;50.50
44982;DHT22;30716;41.740;-70.400;2022-07-24T10:06:21;23.70;50.40
44982;DHT22;30716;41.740;-70.400;2022-07-24T10:08:49;23.70;50.40
44982;DHT22;30716;41.740;-70.400;2022-07-24T10:11:16;23.70;50.40
44982;DHT22;30716;41.740;-70.400;2022-07-24T10:13:44;23.60;50.20
44982;DHT22;30716;41.740;-70.400;2022-07-24T10:18:47;23.60;50.20
44982;DHT22;30716;41.740;-70.400;2022-07-24T10:21:22;23.60;50.00
44982;DHT22;30716;41.740;-70.400;2022-07-24T10:26:48;23.60;50.10
44982;DHT22;30716;41.740;-70.400;2022-07-24T10:29:20;23.70;50.50
44982;DHT22;30716;41.740;-70.400;2022-07-24T10:31:48;23.60;50.60
44982;DHT22;30716;41.740;-70.400;2022-07-24T10:45:36;23.60;49.60
44982;DHT22;30716;41.740;-70.400;2022-07-24T10:51:13;23.50;49.40
44982;DHT22;30716;41.740;-70.400;2022-07-24T10:53:44;23.50;49.80
44982;DHT22;30716;41.740;-70.400;2022-07-24T11:03:56;23.50;50.10
44982;DHT22;30716;41.740;-70.400;2022-07-24T11:07:11;23.50;50.20
44982;DHT22;30716;41.740;-70.400;2022-07-24T11:10:01;23.50;50.30
44982;DHT22;30716;41.740;-70.400;2022-07-24T11:12:33;23.50;50.20
44982;DHT22;30716;41.740;-70.400;2022-07-24T11:15:08;23.50;50.10
44982;DHT22;30716;41.740;-70.400;2022-07-24T11:18:15;23.50;50.20
44982;DHT22;30716;41.740;-70.400;2022-07-24T11:20:42;23.50;50.20
44982;DHT22;30716;41.740;-70.400;2022-07-24T11:23:21;23.40;49.80
44982;DHT22;30716;41.740;-70.400;2022-07-24T11:25:47;23.40;50.00
44982;DHT22;30716;41.740;-70.400;2022-07-24T11:28:13;23.40;51.20
44982;DHT22;30716;41.740;-70.400;2022-07-24T11:30:44;23.40;50.50
44982;DHT22;30716;41.740;-70.400;2022-07-24T11:33:12;23.40;50.30
44982;DHT22;30716;41.740;-70.400;2022-07-24T11:35:43;23.40;50.20
44982;DHT22;30716;41.740;-70.400;2022-07-24T11:38:10;23.40;49.70
44982;DHT22;30716;41.740;-70.400;2022-07-24T11:40:37;23.40;49.70
44982;DHT22;30716;41.740;-70.400;2022-07-24T11:43:05;23.30;49.80
44982;DHT22;30716;41.740;-70.400;2022-07-24T11:45:32;23.30;49.80
44982;DHT22;30716;41.740;-70.400;2022-07-24T11:47:59;23.30;49.70
44982;DHT22;30716;41.740;-70.400;2022-07-24T11:50:26;23.30;49.70
44982;DHT22;30716;41.740;-70.400;2022-07-24T11:52:53;23.30;49.70
44982;DHT22;30716;41.740;-70.400;2022-07-24T11:55:21;23.30;49.30
44982;DHT22;30716;41.740;-70.400;2022-07-24T11:57:55;23.30;49.10
44982;DHT22;30716;41.740;-70.400;2022-07-24T12:00:26;23.20;49.00
44982;DHT22;30716;41.740;-70.400;2022-07-24T12:02:57;23.20;49.00
44982;DHT22;30716;41.740;-70.400;2022-07-24T12:05:31;23.20;48.90
44982;DHT22;30716;41.740;-70.400;2022-07-24T12:08:00;23.20;49.20
44982;DHT22;30716;41.740;-70.400;2022-07-24T12:10:27;23.20;49.30
44982;DHT22;30716;41.740;-70.400;2022-07-24T12:12:55;23.10;49.10
44982;DHT22;30716;41.740;-70.400;2022-07-24T12:15:23;23.10;49.30
44982;DHT22;30716;41.740;-70.400;2022-07-24T12:18:04;23.10;49.50
44982;DHT22;30716;41.740;-70.400;2022-07-24T12:20:37;23.10;49.20
44982;DHT22;30716;41.740;-70.400;2022-07-24T12:23:12;23.10;49.20
44982;DHT22;30716;41.740;-70.400;2022-07-24T12:25:39;23.10;49.50
44982;DHT22;30716;41.740;-70.400;2022-07-24T12:28:11;23.10;49.50
44982;DHT22;30716;41.740;-70.400;2022-07-24T12:30:40;23.10;49.20
44982;DHT22;30716;41.740;-70.400;2022-07-24T12:33:26;23.10;49.20
44982;DHT22;30716;41.740;-70.400;2022-07-24T12:38:41;23.10;49.10
44982;DHT22;30716;41.740;-70.400;2022-07-24T12:41:14;23.10;49.20
44982;DHT22;30716;41.740;-70.400;2022-07-24T12:43:52;23.00;49.20
44982;DHT22;30716;41.740;-70.400;2022-07-24T12:51:24;23.00;49.20
44982;DHT22;30716;41.740;-70.400;2022-07-24T12:53:55;23.00;49.00
44982;DHT22;30716;41.740;-70.400;2022-07-24T12:56:21;23.00;49.00
44982;DHT22;30716;41.740;-70.400;2022-07-24T13:01:20;23.00;49.00
44982;DHT22;30716;41.740;-70.400;2022-07-24T13:03:57;23.00;48.70
44982;DHT22;30716;41.740;-70.400;2022-07-24T13:06:35;23.00;48.70
44982;DHT22;30716;41.740;-70.400;2022-07-24T13:09:04;23.00;48.70
44982;DHT22;30716;41.740;-70.400;2022-07-24T13:11:30;23.00;48.90
44982;DHT22;30716;41.740;-70.400;2022-07-24T13:13:56;23.00;49.00
44982;DHT22;30716;41.740;-70.400;2022-07-24T13:16:27;23.00;49.00
44982;DHT22;30716;41.740;-70.400;2022-07-24T13:18:53;23.00;49.80
44982;DHT22;30716;41.740;-70.400;2022-07-24T13:21:20;23.00;49.00
44982;DHT22;30716;41.740;-70.400;2022-07-24T13:23:46;23.10;49.20
44982;DHT22;30716;41.740;-70.400;2022-07-24T13:26:12;23.10;49.50
44982;DHT22;30716;41.740;-70.400;2022-07-24T13:28:38;23.10;49.50
44982;DHT22;30716;41.740;-70.400;2022-07-24T13:31:05;23.10;49.50
44982;DHT22;30716;41.740;-70.400;2022-07-24T13:33:31;23.10;49.40
44982;DHT22;30716;41.740;-70.400;2022-07-24T13:35:59;23.10;49.40
44982;DHT22;30716;41.740;-70.400;2022-07-24T13:38:26;23.10;49.20
44982;DHT22;30716;41.740;-70.400;2022-07-24T13:40:52;23.00;48.70
44982;DHT22;30716;41.740;-70.400;2022-07-24T13:43:18;23.00;48.60
44982;DHT22;30716;41.740;-70.400;2022-07-24T13:45:45;23.00;48.70
44982;DHT22;30716;41.740;-70.400;2022-07-24T13:48:11;23.00;49.00
44982;DHT22;30716;41.740;-70.400;2022-07-24T13:50:37;23.00;49.10
44982;DHT22;30716;41.740;-70.400;2022-07-24T13:53:03;23.00;49.10
44982;DHT22;30716;41.740;-70.400;2022-07-24T13:55:31;23.00;49.90
44982;DHT22;30716;41.740;-70.400;2022-07-24T13:57:58;23.00;49.10
44982;DHT22;30716;41.740;-70.400;2022-07-24T14:00:24;23.00;49.00
44982;DHT22;30716;41.740;-70.400;2022-07-24T14:02:51;23.00;49.00
44982;DHT22;30716;41.740;-70.400;2022-07-24T14:05:25;23.00;49.00
44982;DHT22;30716;41.740;-70.400;2022-07-24T14:07:52;23.00;49.10
44982;DHT22;30716;41.740;-70.400;2022-07-24T14:10:19;23.00;49.00
44982;DHT22;30716;41.740;-70.400;2022-07-24T14:12:45;23.00;48.70
44982;DHT22;30716;41.740;-70.400;2022-07-24T14:15:12;22.90;48.40
44982;DHT22;30716;41.740;-70.400;2022-07-24T14:17:43;22.90;48.40
44982;DHT22;30716;41.740;-70.400;2022-07-24T14:20:11;22.90;48.50
44982;DHT22;30716;41.740;-70.400;2022-07-24T14:22:38;22.90;49.10
44982;DHT22;30716;41.740;-70.400;2022-07-24T14:25:06;22.90;49.50
44982;DHT22;30716;41.740;-70.400;2022-07-24T14:27:32;22.90;49.40
44982;DHT22;30716;41.740;-70.400;2022-07-24T14:29:59;23.00;49.40
44982;DHT22;30716;41.740;-70.400;2022-07-24T14:32:26;23.00;49.50
44982;DHT22;30716;41.740;-70.400;2022-07-24T14:34:52;23.00;49.50
44982;DHT22;30716;41.740;-70.400;2022-07-24T14:37:19;23.00;49.50
44982;DHT22;30716;41.740;-70.400;2022-07-24T14:39:45;23.00;50.20
44982;DHT22;30716;41.740;-70.400;2022-07-24T14:42:11;23.00;49.10
44982;DHT22;30716;41.740;-70.400;2022-07-24T14:44:37;23.00;48.80
44982;DHT22;30716;41.740;-70.400;2022-07-24T14:47:03;23.00;48.80
44982;DHT22;30716;41.740;-70.400;2022-07-24T14:49:32;22.90;48.60
44982;DHT22;30716;41.740;-70.400;2022-07-24T14:51:59;22.90;48.50
44982;DHT22;30716;41.740;-70.400;2022-07-24T14:54:25;22.90;48.70
44982;DHT22;30716;41.740;-70.400;2022-07-24T14:56:52;22.90;48.70
44982;DHT22;30716;41.740;-70.400;2022-07-24T14:59:18;22.90;48.90
44982;DHT22;30716;41.740;-70.400;2022-07-24T15:01:44;22.90;49.00
44982;DHT22;30716;41.740;-70.400;2022-07-24T15:04:10;22.90;49.10
44982;DHT22;30716;41.740;-70.400;2022-07-24T15:06:39;22.90;49.10
44982;DHT22;30716;41.740;-70.400;2022-07-24T15:09:06;22.90;49.20
44982;DHT22;30716;41.740;-70.400;2022-07-24T15:11:32;22.90;49.10
44982;DHT22;30716;41.740;-70.400;2022-07-24T15:13:58;22.90;49.20
44982;DHT22;30716;41.740;-70.400;2022-07-24T15:16:24;22.90;49.10
44982;DHT22;30716;41.740;-70.400;2022-07-24T15:18:50;23.00;50.00
44982;DHT22;30716;41.740;-70.400;2022-07-24T15:21:16;22.90;49.10
44982;DHT22;30716;41.740;-70.400;2022-07-24T15:23:42;23.00;49.50
44982;DHT22;30716;41.740;-70.400;2022-07-24T15:26:08;23.00;50.50
44982;DHT22;30716;41.740;-70.400;2022-07-24T15:28:34;23.00;49.70
44982;DHT22;30716;41.740;-70.400;2022-07-24T15:31:01;23.00;49.70
44982;DHT22;30716;41.740;-70.400;2022-07-24T15:33:27;23.00;49.60
44982;DHT22;30716;41.740;-70.400;2022-07-24T15:35:53;23.00;50.60
44982;DHT22;30716;41.740;-70.400;2022-07-24T15:38:19;23.00;49.60
44982;DHT22;30716;41.740;-70.400;2022-07-24T15:40:46;23.00;49.70
44982;DHT22;30716;41.740;-70.400;2022-07-24T15:43:12;23.00;49.80
44982;DHT22;30716;41.740;-70.400;2022-07-24T15:45:39;23.00;49.80
44982;DHT22;30716;41.740;-70.400;2022-07-24T15:48:05;23.00;50.10